CheckWX is a tool to help pilots better visualize weather data.  It is not intended as a substitute for an official pre-flight weather briefing.

18:38:43 UTC

KLAR TAF
Laramie Regional Airport
Laramie, Wyoming, USA
KLAR 271737Z 2718/2818 24010KT P6SM VCSH BKN045 OVC080 FM271900 25013G20KT 6SM -SHSN SCT035 OVC060 FM272100 29015G25KT 6SM -SHSN BKN035 OVC050 FM280100 29010KT P6SM VCSH BKN020 OVC040 FM280500 29010KT P6SM SCT080

Jan-27@
18:00 UTC

Jan-27 @ 18:00 UTC

Jan-27@
19:00 UTC

Jan-27 @ 19:00 UTC

KLAR 271737Z 2718/2818 24010KT P6SM VCSH BKN045 OVC080
Wind
  • 240° at 10 KTS
Cloud Levels
  • Broken at 4,500' AGL
  • Overcast at 8,000' AGL

Jan-27@
19:00 UTC

Jan-27 @ 19:00 UTC

Jan-27@
21:00 UTC

Jan-27 @ 21:00 UTC

FM271900 25013G20KT 6SM -SHSN SCT035 OVC060

From

From Standard forecast or significant change

Wind
  • 250° at 13 KTS
  • {Gusting to 20 KTS
Conditions
Light Snow
Cloud Levels
  • Scattered at 3,500' AGL
  • Overcast at 6,000' AGL

Jan-27@
21:00 UTC

Jan-27 @ 21:00 UTC

Jan-28@
01:00 UTC

Jan-28 @ 01:00 UTC

FM272100 29015G25KT 6SM -SHSN BKN035 OVC050

From

From Standard forecast or significant change

Wind
  • 290° at 15 KTS
  • {Gusting to 25 KTS
Conditions
Light Snow
Cloud Levels
  • Broken at 3,500' AGL
  • Overcast at 5,000' AGL

Jan-28@
01:00 UTC

Jan-28 @ 01:00 UTC

Jan-28@
05:00 UTC

Jan-28 @ 05:00 UTC

FM280100 29010KT P6SM VCSH BKN020 OVC040

From

From Standard forecast or significant change

Wind
  • 290° at 10 KTS
Cloud Levels
  • Broken at 2,000' AGL
  • Overcast at 4,000' AGL

Jan-28@
05:00 UTC

Jan-28 @ 05:00 UTC

Jan-28@
18:00 UTC

Jan-28 @ 18:00 UTC

FM280500 29010KT P6SM SCT080

From

From Standard forecast or significant change

Wind
  • 290° at 10 KTS
Cloud Levels
  • Scattered at 8,000' AGL